sensor_id;sensor_type;location;lat;lon;timestamp;pressure;altitude;pressure_sealevel;temperature;humidity
61119;BME280;51448;51.660;5.824;2024-02-23T00:01:14;98729.81;;;4.53;100.00
61119;BME280;51448;51.660;5.824;2024-02-23T00:03:42;98728.22;;;4.52;100.00
61119;BME280;51448;51.660;5.824;2024-02-23T00:06:10;98742.34;;;4.54;100.00
61119;BME280;51448;51.660;5.824;2024-02-23T00:08:39;98759.34;;;4.59;100.00
61119;BME280;51448;51.660;5.824;2024-02-23T00:11:08;98749.56;;;4.58;100.00
61119;BME280;51448;51.660;5.824;2024-02-23T00:13:36;98759.69;;;4.58;100.00
61119;BME280;51448;51.660;5.824;2024-02-23T00:16:04;98757.41;;;4.60;100.00
61119;BME280;51448;51.660;5.824;2024-02-23T00:18:32;98756.63;;;4.59;100.00
61119;BME280;51448;51.660;5.824;2024-02-23T00:20:59;98752.75;;;4.60;100.00
61119;BME280;51448;51.660;5.824;2024-02-23T00:23:27;98765.25;;;4.61;100.00
61119;BME280;51448;51.660;5.824;2024-02-23T00:25:56;98767.34;;;4.64;100.00
61119;BME280;51448;51.660;5.824;2024-02-23T00:28:23;98765.25;;;4.61;100.00
61119;BME280;51448;51.660;5.824;2024-02-23T00:30:51;98763.66;;;4.60;100.00
61119;BME280;51448;51.660;5.824;2024-02-23T00:33:19;98768.50;;;4.63;100.00
61119;BME280;51448;51.660;5.824;2024-02-23T00:35:46;98782.78;;;4.60;100.00
61119;BME280;51448;51.660;5.824;2024-02-23T00:38:15;98773.16;;;4.63;100.00
61119;BME280;51448;51.660;5.824;2024-02-23T00:40:42;98787.59;;;4.63;100.00
61119;BME280;51448;51.660;5.824;2024-02-23T00:43:10;98786.13;;;4.66;100.00
61119;BME280;51448;51.660;5.824;2024-02-23T00:45:37;98792.41;;;4.66;100.00
61119;BME280;51448;51.660;5.824;2024-02-23T00:48:05;98786.28;;;4.69;100.00
61119;BME280;51448;51.660;5.824;2024-02-23T00:50:34;98787.53;;;4.72;100.00
61119;BME280;51448;51.660;5.824;2024-02-23T00:53:02;98804.09;;;4.75;100.00
61119;BME280;51448;51.660;5.824;2024-02-23T00:55:29;98790.44;;;4.75;100.00
61119;BME280;51448;51.660;5.824;2024-02-23T00:57:57;98798.28;;;4.77;100.00
61119;BME280;51448;51.660;5.824;2024-02-23T01:00:26;98798.88;;;4.83;100.00
61119;BME280;51448;51.660;5.824;2024-02-23T01:02:53;98796.66;;;4.85;100.00
61119;BME280;51448;51.660;5.824;2024-02-23T01:05:21;98814.63;;;4.86;100.00
61119;BME280;51448;51.660;5.824;2024-02-23T01:07:49;98806.91;;;4.88;100.00
61119;BME280;51448;51.660;5.824;2024-02-23T01:10:16;98819.44;;;4.89;100.00
61119;BME280;51448;51.660;5.824;2024-02-23T01:12:44;98819.91;;;4.91;100.00
61119;BME280;51448;51.660;5.824;2024-02-23T01:15:11;98820.03;;;4.94;100.00
61119;BME280;51448;51.660;5.824;2024-02-23T01:17:39;98817.78;;;4.96;100.00
61119;BME280;51448;51.660;5.824;2024-02-23T01:20:07;98817.31;;;4.94;100.00
61119;BME280;51448;51.660;5.824;2024-02-23T01:22:35;98831.31;;;4.93;100.00
61119;BME280;51448;51.660;5.824;2024-02-23T01:25:03;98822.78;;;4.94;100.00
61119;BME280;51448;51.660;5.824;2024-02-23T01:27:31;98838.06;;;4.95;100.00
61119;BME280;51448;51.660;5.824;2024-02-23T01:29:59;98842.72;;;4.95;100.00
61119;BME280;51448;51.660;5.824;2024-02-23T01:32:26;98831.78;;;4.95;100.00
61119;BME280;51448;51.660;5.824;2024-02-23T01:34:54;98835.78;;;4.97;100.00
61119;BME280;51448;51.660;5.824;2024-02-23T01:37:22;98827.59;;;4.97;100.00
61119;BME280;51448;51.660;5.824;2024-02-23T01:39:52;98837.38;;;4.98;100.00
61119;BME280;51448;51.660;5.824;2024-02-23T01:42:21;98841.41;;;5.01;99.28
61119;BME280;51448;51.660;5.824;2024-02-23T01:44:49;98832.41;;;5.00;99.22
61119;BME280;51448;51.660;5.824;2024-02-23T01:47:16;98827.41;;;5.03;99.33
61119;BME280;51448;51.660;5.824;2024-02-23T01:49:46;98833.31;;;5.05;98.84
61119;BME280;51448;51.660;5.824;2024-02-23T01:52:15;98850.84;;;5.04;98.81
61119;BME280;51448;51.660;5.824;2024-02-23T01:54:44;98844.13;;;5.01;98.71
61119;BME280;51448;51.660;5.824;2024-02-23T01:57:12;98850.41;;;5.01;98.93
61119;BME280;51448;51.660;5.824;2024-02-23T02:00:01;98853.94;;;5.02;98.47
61119;BME280;51448;51.660;5.824;2024-02-23T02:02:30;98857.13;;;5.04;98.47
61119;BME280;51448;51.660;5.824;2024-02-23T02:04:59;98859.84;;;5.04;98.21
61119;BME280;51448;51.660;5.824;2024-02-23T02:07:26;98859.53;;;5.06;97.88
61119;BME280;51448;51.660;5.824;2024-02-23T02:09:54;98865.31;;;5.04;98.01
61119;BME280;51448;51.660;5.824;2024-02-23T02:12:28;98867.41;;;5.07;97.44
61119;BME280;51448;51.660;5.824;2024-02-23T02:14:56;98859.53;;;5.06;97.46
61119;BME280;51448;51.660;5.824;2024-02-23T02:17:23;98856.81;;;5.06;97.55
61119;BME280;51448;51.660;5.824;2024-02-23T02:19:52;98864.19;;;5.05;97.54
61119;BME280;51448;51.660;5.824;2024-02-23T02:22:19;98863.53;;;5.08;97.20
61119;BME280;51448;51.660;5.824;2024-02-23T02:24:47;98859.22;;;5.07;97.27
61119;BME280;51448;51.660;5.824;2024-02-23T02:27:15;98870.94;;;5.08;97.20
61119;BME280;51448;51.660;5.824;2024-02-23T02:29:42;98876.06;;;5.09;96.83
61119;BME280;51448;51.660;5.824;2024-02-23T02:32:10;98882.81;;;5.12;96.65
61119;BME280;51448;51.660;5.824;2024-02-23T02:34:38;98890.53;;;5.10;96.85
61119;BME280;51448;51.660;5.824;2024-02-23T02:37:05;98891.34;;;5.10;96.46
61119;BME280;51448;51.660;5.824;2024-02-23T02:39:33;98889.09;;;5.12;96.02
61119;BME280;51448;51.660;5.824;2024-02-23T02:42:01;98884.75;;;5.11;95.86
61119;BME280;51448;51.660;5.824;2024-02-23T02:44:28;98889.75;;;5.09;96.07
61119;BME280;51448;51.660;5.824;2024-02-23T02:46:57;98896.69;;;5.07;96.02
61119;BME280;51448;51.660;5.824;2024-02-23T02:49:25;98890.88;;;5.08;95.81
61119;BME280;51448;51.660;5.824;2024-02-23T02:51:53;98887.34;;;5.08;95.79
61119;BME280;51448;51.660;5.824;2024-02-23T02:54:20;98902.16;;;5.07;95.74
61119;BME280;51448;51.660;5.824;2024-02-23T02:56:48;98898.13;;;5.04;95.79
61119;BME280;51448;51.660;5.824;2024-02-23T02:59:17;98913.28;;;5.01;96.07
61119;BME280;51448;51.660;5.824;2024-02-23T03:01:45;98918.59;;;4.98;96.24
61119;BME280;51448;51.660;5.824;2024-02-23T03:04:14;98916.31;;;5.00;95.72
61119;BME280;51448;51.660;5.824;2024-02-23T03:06:42;98917.00;;;4.97;95.85
61119;BME280;51448;51.660;5.824;2024-02-23T03:09:10;98923.59;;;4.96;95.94
61119;BME280;51448;51.660;5.824;2024-02-23T03:11:37;98911.53;;;4.97;95.28
61119;BME280;51448;51.660;5.824;2024-02-23T03:14:05;98910.38;;;4.98;95.41
61119;BME280;51448;51.660;5.824;2024-02-23T03:16:33;98916.53;;;4.95;95.79
61119;BME280;51448;51.660;5.824;2024-02-23T03:19:01;98913.97;;;4.90;95.76
61119;BME280;51448;51.660;5.824;2024-02-23T03:21:30;98907.38;;;4.91;95.98
61119;BME280;51448;51.660;5.824;2024-02-23T03:23:58;98910.91;;;4.91;95.72
61119;BME280;51448;51.660;5.824;2024-02-23T03:26:25;98916.72;;;4.90;95.98
61119;BME280;51448;51.660;5.824;2024-02-23T03:28:53;98918.66;;;4.89;96.12
61119;BME280;51448;51.660;5.824;2024-02-23T03:31:21;98926.84;;;4.89;95.99
61119;BME280;51448;51.660;5.824;2024-02-23T03:33:48;98922.97;;;4.90;95.96
61119;BME280;51448;51.660;5.824;2024-02-23T03:36:16;98924.41;;;4.88;95.91
61119;BME280;51448;51.660;5.824;2024-02-23T03:38:43;98925.72;;;4.90;96.15
61119;BME280;51448;51.660;5.824;2024-02-23T03:41:11;98929.56;;;4.89;95.97
61119;BME280;51448;51.660;5.824;2024-02-23T03:43:39;98931.97;;;4.91;96.12
61119;BME280;51448;51.660;5.824;2024-02-23T03:46:06;98937.78;;;4.89;96.10
61119;BME280;51448;51.660;5.824;2024-02-23T03:48:34;98935.50;;;4.91;95.93
61119;BME280;51448;51.660;5.824;2024-02-23T03:51:04;98933.09;;;4.90;96.14
61119;BME280;51448;51.660;5.824;2024-02-23T03:53:32;98942.09;;;4.90;95.89
61119;BME280;51448;51.660;5.824;2024-02-23T03:56:00;98949.50;;;4.90;95.89
61119;BME280;51448;51.660;5.824;2024-02-23T03:58:27;98944.34;;;4.88;96.18
61119;BME280;51448;51.660;5.824;2024-02-23T04:00:55;98945.16;;;4.89;95.86
61119;BME280;51448;51.660;5.824;2024-02-23T04:03:23;98942.75;;;4.87;96.09
61119;BME280;51448;51.660;5.824;2024-02-23T04:05:50;98947.41;;;4.87;96.04
61119;BME280;51448;51.660;5.824;2024-02-23T04:08:18;98952.06;;;4.86;96.05
61119;BME280;51448;51.660;5.824;2024-02-23T04:10:45;98963.47;;;4.88;96.26
61119;BME280;51448;51.660;5.824;2024-02-23T04:13:13;98955.78;;;4.90;96.31
61119;BME280;51448;51.660;5.824;2024-02-23T04:15:41;98953.34;;;4.89;96.34
61119;BME280;51448;51.660;5.824;2024-02-23T04:18:08;98955.78;;;4.90;96.49
61119;BME280;51448;51.660;5.824;2024-02-23T04:20:36;98962.84;;;4.91;96.97
61119;BME280;51448;51.660;5.824;2024-02-23T04:23:04;98966.53;;;4.95;96.62
61119;BME280;51448;51.660;5.824;2024-02-23T04:25:31;98965.50;;;5.00;96.52
61119;BME280;51448;51.660;5.824;2024-02-23T04:27:59;98967.16;;;5.01;96.40
61119;BME280;51448;51.660;5.824;2024-02-23T04:30:26;98974.66;;;5.04;96.76
61119;BME280;51448;51.660;5.824;2024-02-23T04:32:54;98970.00;;;5.05;96.41
61119;BME280;51448;51.660;5.824;2024-02-23T04:35:21;98964.53;;;5.05;96.25
61119;BME280;51448;51.660;5.824;2024-02-23T04:37:49;98969.19;;;5.04;96.31
61119;BME280;51448;51.660;5.824;2024-02-23T04:40:17;98979.34;;;5.04;95.90
61119;BME280;51448;51.660;5.824;2024-02-23T04:42:45;98985.94;;;5.03;95.77
61119;BME280;51448;51.660;5.824;2024-02-23T04:45:14;98993.34;;;5.02;95.94
61119;BME280;51448;51.660;5.824;2024-02-23T04:47:42;98989.47;;;5.03;95.97
61119;BME280;51448;51.660;5.824;2024-02-23T04:50:10;98989.81;;;5.01;95.96
61119;BME280;51448;51.660;5.824;2024-02-23T04:52:37;98991.41;;;5.03;96.33
61119;BME280;51448;51.660;5.824;2024-02-23T04:55:05;98994.31;;;5.06;96.23
61119;BME280;51448;51.660;5.824;2024-02-23T04:57:33;98987.81;;;5.11;96.05
61119;BME280;51448;51.660;5.824;2024-02-23T05:00:00;98990.25;;;5.12;95.97
61119;BME280;51448;51.660;5.824;2024-02-23T05:02:29;98983.66;;;5.13;95.81
61119;BME280;51448;51.660;5.824;2024-02-23T05:05:03;98997.78;;;5.15;95.53
61119;BME280;51448;51.660;5.824;2024-02-23T05:07:32;98999.38;;;5.16;95.79
61119;BME280;51448;51.660;5.824;2024-02-23T05:10:00;98992.81;;;5.17;95.80
61119;BME280;51448;51.660;5.824;2024-02-23T05:12:28;98992.94;;;5.21;95.91
61119;BME280;51448;51.660;5.824;2024-02-23T05:14:55;99000.50;;;5.24;95.51
61119;BME280;51448;51.660;5.824;2024-02-23T05:17:23;98993.41;;;5.23;95.65
61119;BME280;51448;51.660;5.824;2024-02-23T05:19:51;98986.47;;;5.25;95.52
61119;BME280;51448;51.660;5.824;2024-02-23T05:22:18;98987.28;;;5.26;95.82
61119;BME280;51448;51.660;5.824;2024-02-23T05:24:46;98987.78;;;5.28;95.61
61119;BME280;51448;51.660;5.824;2024-02-23T05:27:14;98997.56;;;5.29;95.44
61119;BME280;51448;51.660;5.824;2024-02-23T05:29:41;98993.06;;;5.33;95.28
61119;BME280;51448;51.660;5.824;2024-02-23T05:32:09;98996.91;;;5.32;95.25
61119;BME280;51448;51.660;5.824;2024-02-23T05:34:38;98983.38;;;5.36;95.41
61119;BME280;51448;51.660;5.824;2024-02-23T05:37:05;98984.31;;;5.40;95.30
61119;BME280;51448;51.660;5.824;2024-02-23T05:39:33;98997.31;;;5.43;94.98
61119;BME280;51448;51.660;5.824;2024-02-23T05:42:00;98993.47;;;5.44;94.81
61119;BME280;51448;51.660;5.824;2024-02-23T05:44:28;98991.34;;;5.49;94.46
61119;BME280;51448;51.660;5.824;2024-02-23T05:46:56;99003.56;;;5.52;94.51
61119;BME280;51448;51.660;5.824;2024-02-23T05:49:24;99005.66;;;5.55;94.13
61119;BME280;51448;51.660;5.824;2024-02-23T05:51:51;98998.69;;;5.58;94.13
61119;BME280;51448;51.660;5.824;2024-02-23T05:54:19;98997.25;;;5.60;93.66
61119;BME280;51448;51.660;5.824;2024-02-23T05:56:47;98995.78;;;5.63;93.45
61119;BME280;51448;51.660;5.824;2024-02-23T05:59:14;99001.72;;;5.65;93.44
61119;BME280;51448;51.660;5.824;2024-02-23T06:01:42;98998.97;;;5.65;93.62
61119;BME280;51448;51.660;5.824;2024-02-23T06:04:09;98998.66;;;5.66;94.00
61119;BME280;51448;51.660;5.824;2024-02-23T06:06:37;98987.72;;;5.66;94.00
61119;BME280;51448;51.660;5.824;2024-02-23T06:09:08;98982.69;;;5.68;94.38
61119;BME280;51448;51.660;5.824;2024-02-23T06:11:35;98983.66;;;5.72;93.29
61119;BME280;51448;51.660;5.824;2024-02-23T06:14:03;98980.56;;;5.74;92.96
61119;BME280;51448;51.660;5.824;2024-02-23T06:16:31;98985.69;;;5.75;92.98
61119;BME280;51448;51.660;5.824;2024-02-23T06:18:58;98977.50;;;5.75;92.89
61119;BME280;51448;51.660;5.824;2024-02-23T06:21:26;98983.75;;;5.76;92.43
61119;BME280;51448;51.660;5.824;2024-02-23T06:23:54;98984.59;;;5.76;92.73
61119;BME280;51448;51.660;5.824;2024-02-23T06:26:21;98987.44;;;5.80;92.42
61119;BME280;51448;51.660;5.824;2024-02-23T06:28:49;98981.16;;;5.79;92.46
61119;BME280;51448;51.660;5.824;2024-02-23T06:31:16;98986.31;;;5.81;91.99
61119;BME280;51448;51.660;5.824;2024-02-23T06:33:44;98976.16;;;5.81;91.82
61119;BME280;51448;51.660;5.824;2024-02-23T06:36:16;98977.78;;;5.83;91.59
61119;BME280;51448;51.660;5.824;2024-02-23T06:38:44;98978.38;;;5.88;90.81
61119;BME280;51448;51.660;5.824;2024-02-23T06:41:12;98989.00;;;5.90;90.62
61119;BME280;51448;51.660;5.824;2024-02-23T06:43:39;98986.91;;;5.87;90.72
61119;BME280;51448;51.660;5.824;2024-02-23T06:46:08;98984.31;;;5.90;90.10
61119;BME280;51448;51.660;5.824;2024-02-23T06:48:36;98993.31;;;5.91;90.51
61119;BME280;51448;51.660;5.824;2024-02-23T06:51:05;98992.69;;;5.94;90.14
61119;BME280;51448;51.660;5.824;2024-02-23T06:53:37;98980.28;;;5.96;89.48
61119;BME280;51448;51.660;5.824;2024-02-23T06:56:06;98991.56;;;5.95;89.87
61119;BME280;51448;51.660;5.824;2024-02-23T06:58:34;98985.75;;;5.96;89.54
61119;BME280;51448;51.660;5.824;2024-02-23T07:01:02;98983.16;;;6.00;89.23
61119;BME280;51448;51.660;5.824;2024-02-23T07:03:30;98978.63;;;6.04;88.48
61119;BME280;51448;51.660;5.824;2024-02-23T07:05:59;98969.25;;;6.05;88.41
61119;BME280;51448;51.660;5.824;2024-02-23T07:08:26;98982.63;;;6.06;88.00
61119;BME280;51448;51.660;5.824;2024-02-23T07:10:54;98973.59;;;6.06;88.10
61119;BME280;51448;51.660;5.824;2024-02-23T07:13:22;98970.19;;;6.09;87.52
61119;BME280;51448;51.660;5.824;2024-02-23T07:15:49;98970.19;;;6.09;87.07
61119;BME280;51448;51.660;5.824;2024-02-23T07:18:17;98962.44;;;6.11;86.86
61119;BME280;51448;51.660;5.824;2024-02-23T07:20:45;98971.91;;;6.14;86.73
61119;BME280;51448;51.660;5.824;2024-02-23T07:23:12;98979.31;;;6.13;87.02
61119;BME280;51448;51.660;5.824;2024-02-23T07:25:40;98984.81;;;6.13;87.34
61119;BME280;51448;51.660;5.824;2024-02-23T07:28:08;98988.81;;;6.16;87.18
61119;BME280;51448;51.660;5.824;2024-02-23T07:30:36;98987.69;;;6.17;87.40
61119;BME280;51448;51.660;5.824;2024-02-23T07:33:03;98996.34;;;6.19;87.15
61119;BME280;51448;51.660;5.824;2024-02-23T07:35:31;98990.88;;;6.19;87.32
61119;BME280;51448;51.660;5.824;2024-02-23T07:37:58;98996.03;;;6.20;86.89
61119;BME280;51448;51.660;5.824;2024-02-23T07:40:26;98983.94;;;6.21;86.96
61119;BME280;51448;51.660;5.824;2024-02-23T07:42:54;98988.75;;;6.24;86.49
61119;BME280;51448;51.660;5.824;2024-02-23T07:45:22;98987.63;;;6.25;86.74
61119;BME280;51448;51.660;5.824;2024-02-23T07:47:49;98991.16;;;6.26;87.04
61119;BME280;51448;51.660;5.824;2024-02-23T07:50:17;98999.03;;;6.27;86.95
61119;BME280;51448;51.660;5.824;2024-02-23T07:52:46;99000.63;;;6.28;86.79
61119;BME280;51448;51.660;5.824;2024-02-23T07:55:14;99002.72;;;6.31;87.11
61119;BME280;51448;51.660;5.824;2024-02-23T07:57:43;98993.00;;;6.34;87.45
61119;BME280;51448;51.660;5.824;2024-02-23T08:00:11;98986.97;;;6.41;86.97
61119;BME280;51448;51.660;5.824;2024-02-23T08:02:39;98982.88;;;6.47;86.08
61119;BME280;51448;51.660;5.824;2024-02-23T08:05:07;98992.53;;;6.53;86.23
61119;BME280;51448;51.660;5.824;2024-02-23T08:07:35;98996.31;;;6.61;86.16
61119;BME280;51448;51.660;5.824;2024-02-23T08:10:03;98980.44;;;6.66;85.97
61119;BME280;51448;51.660;5.824;2024-02-23T08:12:39;98980.69;;;6.73;85.80
61119;BME280;51448;51.660;5.824;2024-02-23T08:15:09;98984.13;;;6.82;84.21
61119;BME280;51448;51.660;5.824;2024-02-23T08:17:37;98990.78;;;6.81;83.51
61119;BME280;51448;51.660;5.824;2024-02-23T08:20:05;98977.41;;;6.80;83.49
61119;BME280;51448;51.660;5.824;2024-02-23T08:22:34;98977.72;;;6.78;84.15
61119;BME280;51448;51.660;5.824;2024-02-23T08:25:01;98975.13;;;6.82;84.03
61119;BME280;51448;51.660;5.824;2024-02-23T08:27:30;98980.72;;;6.85;83.62
61119;BME280;51448;51.660;5.824;2024-02-23T08:29:57;98980.03;;;6.89;83.59
61119;BME280;51448;51.660;5.824;2024-02-23T08:32:24;98980.03;;;6.89;83.64
61119;BME280;51448;51.660;5.824;2024-02-23T08:34:52;98977.78;;;6.91;83.91
61119;BME280;51448;51.660;5.824;2024-02-23T08:37:26;98977.06;;;6.94;83.47
61119;BME280;51448;51.660;5.824;2024-02-23T08:39:54;98974.00;;;6.95;83.14
61119;BME280;51448;51.660;5.824;2024-02-23T08:42:21;98980.28;;;6.96;83.33
61119;BME280;51448;51.660;5.824;2024-02-23T08:44:49;98978.00;;;6.98;83.63
61119;BME280;51448;51.660;5.824;2024-02-23T08:47:17;98975.72;;;7.00;83.76
61119;BME280;51448;51.660;5.824;2024-02-23T08:49:45;98972.97;;;7.00;83.72
61119;BME280;51448;51.660;5.824;2024-02-23T08:52:12;98965.22;;;7.02;83.94
61119;BME280;51448;51.660;5.824;2024-02-23T08:54:40;98962.25;;;7.07;83.69
61119;BME280;51448;51.660;5.824;2024-02-23T08:57:08;98957.66;;;7.11;83.61
61119;BME280;51448;51.660;5.824;2024-02-23T08:59:35;98969.13;;;7.13;83.28
61119;BME280;51448;51.660;5.824;2024-02-23T09:02:03;98964.44;;;7.14;83.37
61119;BME280;51448;51.660;5.824;2024-02-23T09:04:31;98976.63;;;7.16;83.40
61119;BME280;51448;51.660;5.824;2024-02-23T09:06:59;98960.31;;;7.20;82.62
61119;BME280;51448;51.660;5.824;2024-02-23T09:09:26;98963.50;;;7.22;83.11
61119;BME280;51448;51.660;5.824;2024-02-23T09:11:54;98963.28;;;7.27;82.90
61119;BME280;51448;51.660;5.824;2024-02-23T09:14:21;98962.91;;;7.28;82.05
61119;BME280;51448;51.660;5.824;2024-02-23T09:16:49;98957.44;;;7.28;81.49
61119;BME280;51448;51.660;5.824;2024-02-23T09:19:18;98973.44;;;7.26;82.34
61119;BME280;51448;51.660;5.824;2024-02-23T09:21:46;98955.53;;;7.29;81.92
61119;BME280;51448;51.660;5.824;2024-02-23T09:24:14;98961.44;;;7.31;81.90
61119;BME280;51448;51.660;5.824;2024-02-23T09:26:46;98954.03;;;7.31;81.69
61119;BME280;51448;51.660;5.824;2024-02-23T09:29:14;98960.66;;;7.30;81.81
61119;BME280;51448;51.660;5.824;2024-02-23T09:31:42;98964.19;;;7.31;81.96
61119;BME280;51448;51.660;5.824;2024-02-23T09:34:10;98957.22;;;7.33;82.38
61119;BME280;51448;51.660;5.824;2024-02-23T09:36:38;98965.44;;;7.33;82.42
61119;BME280;51448;51.660;5.824;2024-02-23T09:39:05;98954.94;;;7.35;82.65
61119;BME280;51448;51.660;5.824;2024-02-23T09:41:33;98958.94;;;7.38;82.61
61119;BME280;51448;51.660;5.824;2024-02-23T09:44:02;98959.84;;;7.42;82.38
61119;BME280;51448;51.660;5.824;2024-02-23T09:46:30;98964.97;;;7.44;81.92
61119;BME280;51448;51.660;5.824;2024-02-23T09:48:58;98968.53;;;7.44;82.22
61119;BME280;51448;51.660;5.824;2024-02-23T09:51:27;98976.53;;;7.49;81.79
61119;BME280;51448;51.660;5.824;2024-02-23T09:53:56;98978.59;;;7.52;82.01
61119;BME280;51448;51.660;5.824;2024-02-23T09:56:27;98970.94;;;7.58;82.15
61119;BME280;51448;51.660;5.824;2024-02-23T09:59:00;98976.97;;;7.63;81.89
61119;BME280;51448;51.660;5.824;2024-02-23T10:01:30;98977.91;;;7.68;82.17
61119;BME280;51448;51.660;5.824;2024-02-23T10:04:01;98977.19;;;7.71;81.83
61119;BME280;51448;51.660;5.824;2024-02-23T10:06:32;98985.09;;;7.72;80.84
61119;BME280;51448;51.660;5.824;2024-02-23T10:09:00;98983.47;;;7.71;81.48
61119;BME280;51448;51.660;5.824;2024-02-23T10:11:27;98982.69;;;7.71;82.01
61119;BME280;51448;51.660;5.824;2024-02-23T10:13:55;98991.84;;;7.75;82.08
61119;BME280;51448;51.660;5.824;2024-02-23T10:16:23;99007.06;;;7.72;81.71
61119;BME280;51448;51.660;5.824;2024-02-23T10:18:51;99013.69;;;7.71;81.73
61119;BME280;51448;51.660;5.824;2024-02-23T10:21:18;99006.59;;;7.70;82.34
61119;BME280;51448;51.660;5.824;2024-02-23T10:23:47;99016.44;;;7.71;82.74
61119;BME280;51448;51.660;5.824;2024-02-23T10:26:15;99013.34;;;7.73;82.62
61119;BME280;51448;51.660;5.824;2024-02-23T10:28:46;99017.34;;;7.75;81.86
61119;BME280;51448;51.660;5.824;2024-02-23T10:31:18;99014.94;;;7.74;81.50
61119;BME280;51448;51.660;5.824;2024-02-23T10:33:46;99014.16;;;7.73;81.88
61119;BME280;51448;51.660;5.824;2024-02-23T10:36:18;99023.97;;;7.74;81.59
61119;BME280;51448;51.660;5.824;2024-02-23T10:38:46;99030.16;;;7.71;81.63
61119;BME280;51448;51.660;5.824;2024-02-23T10:41:16;99032.44;;;7.69;81.65
61119;BME280;51448;51.660;5.824;2024-02-23T10:43:48;99040.34;;;7.71;80.65
61119;BME280;51448;51.660;5.824;2024-02-23T10:46:17;99041.94;;;7.72;81.11
61119;BME280;51448;51.660;5.824;2024-02-23T10:48:48;99035.19;;;7.69;81.36
61119;BME280;51448;51.660;5.824;2024-02-23T10:51:17;99055.56;;;7.68;81.59
61119;BME280;51448;51.660;5.824;2024-02-23T10:53:48;99052.34;;;7.66;81.53
61119;BME280;51448;51.660;5.824;2024-02-23T10:56:17;99045.25;;;7.65;82.24
61119;BME280;51448;51.660;5.824;2024-02-23T10:58:45;99049.72;;;7.70;81.59
61119;BME280;51448;51.660;5.824;2024-02-23T11:01:13;99046.19;;;7.69;81.77
61119;BME280;51448;51.660;5.824;2024-02-23T11:03:44;99050.88;;;7.69;81.99
61119;BME280;51448;51.660;5.824;2024-02-23T11:06:17;99048.94;;;7.69;82.38
61119;BME280;51448;51.660;5.824;2024-02-23T11:08:50;99052.13;;;7.71;82.24
61119;BME280;51448;51.660;5.824;2024-02-23T11:11:18;99044.69;;;7.72;82.21
61119;BME280;51448;51.660;5.824;2024-02-23T11:13:46;99048.69;;;7.74;81.54
61119;BME280;51448;51.660;5.824;2024-02-23T11:16:22;99051.78;;;7.73;81.46
61119;BME280;51448;51.660;5.824;2024-02-23T11:19:06;99062.41;;;7.74;81.86
61119;BME280;51448;51.660;5.824;2024-02-23T11:21:37;99048.69;;;7.74;81.79
61119;BME280;51448;51.660;5.824;2024-02-23T11:24:06;99050.28;;;7.75;82.00
61119;BME280;51448;51.660;5.824;2024-02-23T11:26:37;99056.59;;;7.76;82.34
61119;BME280;51448;51.660;5.824;2024-02-23T11:29:11;99051.09;;;7.76;82.35
61119;BME280;51448;51.660;5.824;2024-02-23T11:31:44;99049.63;;;7.78;82.64
61119;BME280;51448;51.660;5.824;2024-02-23T11:34:13;99066.88;;;7.79;82.53
61119;BME280;51448;51.660;5.824;2024-02-23T11:36:50;99054.75;;;7.80;82.57
61119;BME280;51448;51.660;5.824;2024-02-23T11:39:20;99065.38;;;7.81;82.79
61119;BME280;51448;51.660;5.824;2024-02-23T11:41:49;99063.44;;;7.82;82.52
61119;BME280;51448;51.660;5.824;2024-02-23T11:44:17;99060.81;;;7.85;82.26
61119;BME280;51448;51.660;5.824;2024-02-23T11:46:46;99061.63;;;7.86;81.91
61119;BME280;51448;51.660;5.824;2024-02-23T11:49:14;99064.00;;;7.87;81.90
61119;BME280;51448;51.660;5.824;2024-02-23T11:51:43;99060.59;;;7.90;81.90
61119;BME280;51448;51.660;5.824;2024-02-23T11:54:12;99065.84;;;7.96;81.93
61119;BME280;51448;51.660;5.824;2024-02-23T11:56:40;99073.06;;;8.00;82.62
61119;BME280;51448;51.660;5.824;2024-02-23T11:59:08;99068.91;;;8.06;81.90
61119;BME280;51448;51.660;5.824;2024-02-23T12:01:36;99067.19;;;8.14;82.07
61119;BME280;51448;51.660;5.824;2024-02-23T12:04:04;99060.28;;;8.20;81.82
61119;BME280;51448;51.660;5.824;2024-02-23T12:06:31;99066.09;;;8.31;81.64
61119;BME280;51448;51.660;5.824;2024-02-23T12:09:01;99064.50;;;8.42;81.35
61119;BME280;51448;51.660;5.824;2024-02-23T12:11:29;99062.06;;;8.53;81.59
61119;BME280;51448;51.660;5.824;2024-02-23T12:13:57;99065.13;;;8.63;80.26
61119;BME280;51448;51.660;5.824;2024-02-23T12:16:27;99061.56;;;8.63;80.50
61119;BME280;51448;51.660;5.824;2024-02-23T12:18:55;99063.09;;;8.60;80.88
61119;BME280;51448;51.660;5.824;2024-02-23T12:21:24;99060.66;;;8.59;81.04
61119;BME280;51448;51.660;5.824;2024-02-23T12:23:52;99059.53;;;8.60;80.64
61119;BME280;51448;51.660;5.824;2024-02-23T12:26:20;99065.47;;;8.62;79.60
61119;BME280;51448;51.660;5.824;2024-02-23T12:28:48;99064.56;;;8.58;79.78
61119;BME280;51448;51.660;5.824;2024-02-23T12:31:16;99065.72;;;8.57;79.49
61119;BME280;51448;51.660;5.824;2024-02-23T12:33:51;99076.28;;;8.55;79.83
61119;BME280;51448;51.660;5.824;2024-02-23T12:36:19;99070.78;;;8.55;79.64
61119;BME280;51448;51.660;5.824;2024-02-23T12:38:47;99074.69;;;8.54;79.78
61119;BME280;51448;51.660;5.824;2024-02-23T12:41:15;99076.63;;;8.53;79.65
61119;BME280;51448;51.660;5.824;2024-02-23T12:43:42;99078.91;;;8.51;79.87
61119;BME280;51448;51.660;5.824;2024-02-23T12:46:14;99075.72;;;8.49;79.83
61119;BME280;51448;51.660;5.824;2024-02-23T12:48:42;99076.88;;;8.48;80.22
61119;BME280;51448;51.660;5.824;2024-02-23T12:51:10;99075.25;;;8.47;80.63
61119;BME280;51448;51.660;5.824;2024-02-23T12:53:39;99079.72;;;8.52;80.68
61119;BME280;51448;51.660;5.824;2024-02-23T12:56:12;99076.16;;;8.51;80.93
61119;BME280;51448;51.660;5.824;2024-02-23T12:58:42;99074.22;;;8.52;81.05
61119;BME280;51448;51.660;5.824;2024-02-23T13:01:11;99080.06;;;8.50;80.80
61119;BME280;51448;51.660;5.824;2024-02-23T13:03:39;99076.53;;;8.50;80.96
61119;BME280;51448;51.660;5.824;2024-02-23T13:06:10;99078.56;;;8.53;80.62
61119;BME280;51448;51.660;5.824;2024-02-23T13:08:38;99078.00;;;8.59;80.26
61119;BME280;51448;51.660;5.824;2024-02-23T13:11:08;99078.06;;;8.63;80.40
61119;BME280;51448;51.660;5.824;2024-02-23T13:13:36;99078.97;;;8.67;79.88
61119;BME280;51448;51.660;5.824;2024-02-23T13:16:06;99073.47;;;8.67;79.00